createdAt,value
2022-10-06T00:00:10.509Z,29.46
2022-10-06T00:02:41.063Z,29.49
2022-10-06T00:05:11.641Z,29.53
2022-10-06T00:07:42.331Z,29.35
2022-10-06T00:10:12.837Z,29.58
2022-10-06T00:12:45.415Z,29.11
2022-10-06T00:15:19.878Z,29.55
2022-10-06T00:17:50.655Z,29.65
2022-10-06T00:20:22.070Z,29.69
2022-10-06T00:22:52.650Z,29.59
2022-10-06T00:25:24.941Z,29.72
2022-10-06T00:27:55.978Z,29.74
2022-10-06T00:30:28.916Z,29.18
2022-10-06T00:33:05.636Z,29.50
2022-10-06T00:35:36.466Z,29.76
2022-10-06T00:38:07.340Z,29.82
2022-10-06T00:40:48.554Z,29.83
2022-10-06T00:44:00.336Z,29.78
2022-10-06T00:46:49.058Z,29.83
2022-10-06T00:49:40.676Z,29.86
2022-10-06T00:52:16.265Z,29.96
2022-10-06T00:54:46.816Z,30.09
2022-10-06T00:57:18.167Z,30.12
2022-10-06T00:59:49.226Z,30.15
2022-10-06T01:02:31.090Z,30.09
2022-10-06T01:05:04.623Z,29.65
2022-10-06T01:07:35.060Z,30.20
2022-10-06T01:10:05.798Z,30.27
2022-10-06T01:12:36.811Z,30.28
2022-10-06T01:15:09.015Z,30.30
2022-10-06T01:17:53.832Z,30.26
2022-10-06T01:20:24.895Z,30.34
2022-10-06T01:23:08.170Z,29.82
2022-10-06T01:25:39.199Z,30.24
2022-10-06T01:28:11.566Z,30.38
2022-10-06T01:30:54.149Z,29.84
2022-10-06T01:33:27.086Z,30.34
2022-10-06T01:35:58.221Z,30.42
2022-10-06T01:38:28.872Z,30.47
2022-10-06T01:41:04.290Z,30.44
2022-10-06T01:43:37.777Z,30.51
2022-10-06T01:46:08.972Z,30.51
2022-10-06T01:48:39.368Z,30.54
2022-10-06T01:51:15.411Z,29.93
2022-10-06T01:53:46.495Z,30.58
2022-10-06T01:56:16.929Z,30.60
2022-10-06T01:58:47.630Z,30.54
2022-10-06T02:01:18.722Z,30.62
2022-10-06T02:06:52.409Z,30.60
2022-10-06T02:09:23.894Z,30.69
2022-10-06T02:11:56.756Z,30.67
2022-10-06T02:14:27.759Z,30.71
2022-10-06T02:16:58.105Z,30.75
2022-10-06T02:19:28.494Z,30.78
2022-10-06T02:22:01.439Z,30.79
2022-10-06T02:24:32.179Z,30.68
2022-10-06T02:27:02.733Z,30.78
2022-10-06T02:29:33.570Z,30.86
2022-10-06T02:32:05.000Z,30.84
2022-10-06T02:34:35.439Z,30.90
2022-10-06T02:37:07.707Z,30.94
2022-10-06T02:39:38.653Z,30.56
2022-10-06T02:42:09.062Z,30.97
2022-10-06T02:44:41.825Z,30.99
2022-10-06T02:47:15.488Z,31.02
2022-10-06T02:49:46.905Z,31.04
2022-10-06T02:52:18.973Z,31.08
2022-10-06T02:54:49.345Z,31.10
2022-10-06T02:57:19.632Z,31.11
2022-10-06T02:59:50.519Z,31.15
2022-10-06T03:02:21.115Z,31.19
2022-10-06T03:04:51.863Z,31.22
2022-10-06T03:07:22.502Z,31.13
2022-10-06T03:09:52.819Z,31.27
2022-10-06T03:12:25.643Z,31.28
2022-10-06T03:14:56.032Z,31.25
2022-10-06T03:17:26.738Z,31.34
2022-10-06T03:20:00.217Z,31.36
2022-10-06T03:22:30.524Z,31.39
2022-10-06T03:25:01.017Z,31.39
2022-10-06T03:27:31.726Z,31.42
2022-10-06T03:30:07.032Z,31.43
2022-10-06T03:32:39.531Z,31.34
2022-10-06T03:35:11.851Z,31.23
2022-10-06T03:37:42.875Z,31.42
2022-10-06T03:40:13.394Z,31.49
2022-10-06T03:42:44.198Z,31.52
2022-10-06T03:45:15.002Z,31.56
2022-10-06T03:47:45.333Z,31.58
2022-10-06T03:50:15.978Z,31.60
2022-10-06T03:52:52.196Z,31.49
2022-10-06T03:55:23.024Z,31.53
2022-10-06T03:57:53.770Z,31.61
2022-10-06T04:00:24.069Z,31.57
2022-10-06T04:02:54.475Z,31.65
2022-10-06T04:05:25.001Z,31.57
2022-10-06T04:07:55.685Z,31.64
2022-10-06T04:10:26.022Z,31.51
2022-10-06T04:12:56.315Z,31.67
2022-10-06T04:15:26.639Z,31.68
2022-10-06T04:17:57.063Z,31.70
2022-10-06T04:20:27.976Z,31.64
2022-10-06T04:22:58.855Z,31.72
2022-10-06T04:25:29.351Z,31.63
2022-10-06T04:28:00.407Z,31.72
2022-10-06T04:30:31.486Z,31.74
2022-10-06T04:33:02.344Z,31.75
2022-10-06T04:35:32.687Z,31.77
2022-10-06T04:38:03.121Z,31.77
2022-10-06T04:40:34.580Z,31.76
2022-10-06T04:43:05.746Z,31.78
2022-10-06T04:45:36.606Z,31.78
2022-10-06T04:48:09.940Z,31.83
2022-10-06T04:50:40.855Z,31.84
2022-10-06T04:53:14.608Z,31.79
2022-10-06T04:55:45.557Z,31.86
2022-10-06T04:58:16.418Z,31.88
2022-10-06T05:00:50.110Z,31.90
2022-10-06T05:03:20.648Z,31.64
2022-10-06T05:05:51.026Z,31.93
2022-10-06T05:08:21.604Z,31.93
2022-10-06T05:10:52.070Z,31.95
2022-10-06T05:13:22.917Z,31.95
2022-10-06T05:16:00.836Z,31.87
2022-10-06T05:18:35.609Z,31.98
2022-10-06T05:21:28.269Z,31.89
2022-10-06T05:23:59.650Z,31.97
2022-10-06T05:26:32.774Z,31.90
2022-10-06T05:29:05.935Z,32.00
2022-10-06T05:31:44.060Z,32.02
2022-10-06T05:34:16.809Z,32.02
2022-10-06T05:36:49.051Z,32.02
2022-10-06T05:39:19.633Z,32.00
2022-10-06T05:41:53.913Z,32.04
2022-10-06T05:44:24.289Z,32.05
2022-10-06T05:46:54.686Z,32.05
2022-10-06T05:49:25.102Z,32.08
2022-10-06T05:52:02.320Z,32.00
2022-10-06T05:54:38.171Z,32.08
2022-10-06T05:57:10.243Z,32.06
2022-10-06T05:59:41.849Z,32.07
2022-10-06T06:02:12.371Z,32.08
2022-10-06T06:04:45.918Z,32.11
2022-10-06T06:07:16.938Z,32.05
2022-10-06T06:09:48.915Z,32.09
2022-10-06T06:12:19.279Z,32.10
2022-10-06T06:15:14.317Z,31.99
2022-10-06T06:17:49.895Z,32.10
2022-10-06T06:20:20.249Z,32.13
2022-10-06T06:22:54.514Z,31.91
2022-10-06T06:25:31.215Z,31.81
2022-10-06T06:28:01.862Z,32.04
2022-10-06T06:30:32.416Z,32.15
2022-10-06T06:33:02.971Z,32.03
2022-10-06T06:35:33.336Z,32.15
2022-10-06T06:38:03.887Z,32.16
2022-10-06T06:40:35.479Z,32.15
2022-10-06T06:43:06.024Z,32.13
2022-10-06T06:46:05.425Z,32.12
2022-10-06T06:49:05.381Z,32.10
2022-10-06T06:51:50.772Z,32.15
2022-10-06T06:54:23.442Z,32.14
2022-10-06T06:56:58.749Z,32.13
2022-10-06T06:59:29.166Z,31.99
2022-10-06T07:02:01.968Z,32.12
2022-10-06T07:04:38.264Z,32.09
2022-10-06T07:07:13.201Z,31.57
2022-10-06T07:09:44.726Z,32.15
2022-10-06T07:12:16.219Z,32.03
2022-10-06T07:15:12.848Z,32.13
2022-10-06T07:18:05.303Z,32.11
2022-10-06T07:20:54.925Z,32.13
2022-10-06T07:23:45.109Z,31.88
2022-10-06T07:26:22.218Z,32.09
2022-10-06T07:28:55.000Z,32.15
2022-10-06T07:31:26.471Z,32.12
2022-10-06T07:33:58.090Z,31.80
2022-10-06T07:36:29.103Z,32.16
2022-10-06T07:38:59.533Z,32.13
2022-10-06T07:41:32.549Z,32.10
2022-10-06T07:44:08.120Z,32.16
2022-10-06T07:46:40.448Z,32.01
2022-10-06T07:49:20.140Z,32.17
2022-10-06T07:51:51.162Z,32.07
2022-10-06T07:54:27.150Z,31.84
2022-10-06T07:57:24.521Z,32.12
2022-10-06T07:59:57.090Z,32.17
2022-10-06T08:02:34.687Z,32.10
2022-10-06T08:05:06.958Z,32.17
2022-10-06T08:07:37.347Z,32.12
2022-10-06T08:10:08.356Z,32.12
2022-10-06T08:12:41.049Z,32.19
2022-10-06T08:15:13.977Z,32.14
2022-10-06T08:17:44.374Z,32.20
2022-10-06T08:20:15.123Z,32.20
2022-10-06T08:22:46.275Z,32.19
2022-10-06T08:25:16.881Z,32.17
2022-10-06T08:27:52.651Z,32.19
2022-10-06T08:30:27.596Z,32.18
2022-10-06T08:32:59.469Z,32.18
2022-10-06T08:35:31.479Z,31.83
2022-10-06T08:38:01.774Z,32.11
2022-10-06T08:40:32.501Z,32.16
2022-10-06T08:43:04.190Z,31.68
2022-10-06T08:45:44.165Z,32.02
2022-10-06T08:48:30.741Z,32.12
2022-10-06T08:51:20.738Z,32.15
2022-10-06T08:54:12.688Z,31.23
2022-10-06T08:57:23.420Z,31.16
2022-10-06T08:59:54.419Z,32.07
2022-10-06T09:02:31.415Z,32.10
2022-10-06T09:05:05.695Z,32.08
2022-10-06T09:08:02.415Z,32.01
2022-10-06T09:10:32.797Z,32.11
2022-10-06T09:13:22.052Z,31.89
2022-10-06T09:16:00.202Z,31.63
2022-10-06T09:19:07.834Z,31.53
2022-10-06T09:21:46.809Z,32.11
2022-10-06T09:24:46.957Z,31.43
2022-10-06T09:27:29.344Z,31.40
2022-10-06T09:30:00.914Z,31.68
2022-10-06T09:32:33.120Z,31.63
2022-10-06T09:35:13.950Z,31.55
2022-10-06T09:38:17.225Z,31.37
2022-10-06T09:40:53.933Z,31.38
2022-10-06T09:43:29.561Z,31.48
2022-10-06T09:46:21.670Z,31.37
2022-10-06T09:49:18.524Z,31.35
2022-10-06T09:52:13.894Z,31.34
2022-10-06T09:54:46.354Z,31.09
2022-10-06T09:57:22.820Z,31.44
2022-10-06T09:59:54.426Z,31.40
2022-10-06T10:02:40.507Z,30.86
2022-10-06T10:05:24.499Z,31.35
2022-10-06T10:08:19.346Z,31.35
2022-10-06T10:10:51.598Z,31.38
2022-10-06T10:13:27.864Z,31.37
2022-10-06T10:16:04.073Z,31.30
2022-10-06T10:18:34.778Z,31.33
2022-10-06T10:21:08.089Z,31.24
2022-10-06T10:23:43.877Z,30.96
2022-10-06T10:26:40.809Z,30.83
2022-10-06T10:29:33.244Z,31.35
2022-10-06T10:32:12.842Z,31.36
2022-10-06T10:34:45.960Z,31.34
2022-10-06T10:37:19.555Z,30.97
2022-10-06T10:39:54.568Z,31.21
2022-10-06T10:42:42.215Z,31.32
2022-10-06T10:45:37.794Z,31.42
2022-10-06T10:48:16.966Z,31.55
2022-10-06T10:51:14.351Z,30.68
2022-10-06T10:53:57.001Z,31.64
2022-10-06T10:56:30.867Z,31.60
2022-10-06T10:59:10.835Z,31.69
2022-10-06T11:01:47.784Z,31.71
2022-10-06T11:04:18.284Z,31.74
2022-10-06T11:07:13.069Z,31.34
2022-10-06T11:10:15.443Z,31.72
2022-10-06T11:12:51.597Z,31.76
2022-10-06T11:15:49.534Z,31.65
2022-10-06T11:18:27.132Z,31.71
2022-10-06T11:21:04.948Z,31.51
2022-10-06T11:23:54.789Z,31.36
2022-10-06T11:26:39.121Z,31.33
2022-10-06T11:29:15.745Z,31.33
2022-10-06T11:32:15.058Z,31.19
2022-10-06T11:34:49.188Z,31.22
2022-10-06T11:37:37.152Z,31.18
2022-10-06T11:40:25.641Z,31.16
2022-10-06T11:43:13.292Z,30.57
2022-10-06T11:46:08.990Z,30.48
2022-10-06T11:48:39.611Z,31.07
2022-10-06T11:51:25.463Z,31.03
2022-10-06T11:53:56.723Z,31.03
2022-10-06T11:56:39.654Z,31.01
2022-10-06T11:59:11.503Z,30.54
2022-10-06T12:01:48.766Z,31.01
2022-10-06T12:04:24.373Z,30.90
2022-10-06T12:06:59.098Z,31.00
2022-10-06T12:09:39.747Z,30.59
2022-10-06T12:12:19.967Z,30.95
2022-10-06T12:18:31.437Z,30.70
2022-10-06T12:21:46.569Z,30.57
2022-10-06T12:24:37.903Z,30.46
2022-10-06T12:27:18.860Z,30.89
2022-10-06T12:30:00.258Z,30.39
2022-10-06T12:32:30.999Z,30.73
2022-10-06T12:35:10.799Z,30.55
2022-10-06T12:37:44.554Z,29.95
2022-10-06T12:40:50.338Z,30.23
2022-10-06T12:43:28.078Z,30.22
2022-10-06T12:46:34.582Z,29.94
2022-10-06T12:49:27.761Z,30.00
2022-10-06T12:52:07.216Z,29.99
2022-10-06T12:54:45.351Z,29.97
2022-10-06T12:57:15.714Z,29.89
2022-10-06T12:59:48.494Z,29.81
2022-10-06T13:02:32.359Z,29.76
2022-10-06T13:05:11.811Z,29.62
2022-10-06T13:08:08.116Z,29.61
2022-10-06T13:10:38.523Z,29.57
2022-10-06T13:13:25.178Z,29.55
2022-10-06T13:16:01.624Z,29.59
2022-10-06T13:18:34.016Z,29.57
2022-10-06T13:21:04.729Z,29.38
2022-10-06T13:23:40.687Z,29.01
2022-10-06T13:26:17.377Z,29.44
2022-10-06T13:28:51.058Z,29.42
2022-10-06T13:31:21.973Z,29.39
2022-10-06T13:34:01.272Z,29.35
2022-10-06T13:36:38.614Z,28.92
2022-10-06T13:39:19.059Z,29.36
2022-10-06T13:41:54.322Z,29.35
2022-10-06T13:44:55.625Z,28.29
2022-10-06T13:47:30.202Z,29.26
2022-10-06T13:50:09.640Z,29.12
2022-10-06T13:52:41.271Z,29.23
2022-10-06T13:55:26.919Z,29.14
2022-10-06T13:58:06.806Z,29.27
2022-10-06T14:00:51.922Z,29.29
2022-10-06T14:06:14.283Z,29.37
2022-10-06T14:08:52.554Z,29.34
2022-10-06T14:11:27.553Z,28.77
2022-10-06T14:14:04.599Z,29.22
2022-10-06T14:16:35.741Z,29.37
2022-10-06T14:19:08.695Z,29.28
2022-10-06T14:21:52.695Z,29.35
2022-10-06T14:24:28.452Z,29.20
2022-10-06T14:27:10.227Z,29.34
2022-10-06T14:29:42.542Z,29.31
2022-10-06T14:32:19.256Z,29.36
2022-10-06T14:34:50.138Z,29.32
2022-10-06T14:37:26.467Z,29.32
2022-10-06T14:39:57.599Z,29.25
2022-10-06T14:42:28.786Z,29.32
2022-10-06T14:45:04.157Z,29.28
2022-10-06T14:47:38.860Z,29.25
2022-10-06T14:50:10.051Z,29.26
2022-10-06T14:52:42.074Z,29.15
2022-10-06T14:55:14.758Z,29.24
2022-10-06T14:57:46.437Z,29.20
2022-10-06T15:00:17.460Z,29.20
2022-10-06T15:02:49.058Z,29.19
2022-10-06T15:05:20.858Z,29.19
2022-10-06T15:08:11.588Z,29.16
2022-10-06T15:10:53.937Z,28.58
2022-10-06T15:13:27.598Z,29.27
2022-10-06T15:16:01.254Z,29.35
2022-10-06T15:18:32.889Z,29.25
2022-10-06T15:21:07.104Z,29.39
2022-10-06T15:23:39.684Z,29.47
2022-10-06T15:26:30.048Z,29.43
2022-10-06T15:29:04.309Z,29.48
2022-10-06T15:31:42.981Z,29.37
2022-10-06T15:34:17.061Z,29.30
2022-10-06T15:36:48.325Z,29.24
2022-10-06T15:39:25.620Z,29.20
2022-10-06T15:41:56.951Z,29.15
2022-10-06T15:44:28.052Z,29.15
2022-10-06T15:46:59.466Z,29.13
2022-10-06T15:49:31.783Z,29.14
2022-10-06T15:52:04.506Z,29.12
2022-10-06T15:54:40.522Z,28.20
2022-10-06T15:57:17.886Z,28.91
2022-10-06T15:59:51.047Z,29.08
2022-10-06T16:02:22.245Z,29.04
2022-10-06T16:05:14.090Z,29.10
2022-10-06T16:07:44.443Z,28.98
2022-10-06T16:10:15.006Z,28.96
2022-10-06T16:12:45.448Z,28.93
2022-10-06T16:15:16.058Z,28.90
2022-10-06T16:17:46.603Z,28.84
2022-10-06T16:20:19.178Z,28.81
2022-10-06T16:22:49.683Z,28.78
2022-10-06T16:25:20.069Z,28.76
2022-10-06T16:27:50.433Z,28.91
2022-10-06T16:30:20.919Z,28.82
2022-10-06T16:32:51.609Z,28.83
2022-10-06T16:35:22.530Z,28.91
2022-10-06T16:37:53.040Z,28.86
2022-10-06T16:40:24.181Z,28.87
2022-10-06T16:42:54.520Z,28.87
2022-10-06T16:45:26.207Z,28.90
2022-10-06T16:47:56.581Z,28.88
2022-10-06T16:50:27.460Z,28.81
2022-10-06T16:52:57.780Z,28.85
2022-10-06T16:55:28.080Z,28.87
2022-10-06T16:57:58.485Z,28.84
2022-10-06T17:00:29.054Z,28.89
2022-10-06T17:02:59.510Z,28.85
2022-10-06T17:05:30.653Z,28.92
2022-10-06T17:08:01.100Z,29.09
2022-10-06T17:10:31.516Z,29.16
2022-10-06T17:13:01.872Z,29.12
2022-10-06T17:15:33.687Z,29.22
2022-10-06T17:18:04.405Z,29.04
2022-10-06T17:20:35.498Z,29.05
2022-10-06T17:23:05.945Z,29.22
2022-10-06T17:25:37.248Z,29.23
2022-10-06T17:28:07.807Z,29.21
2022-10-06T17:30:38.312Z,29.23
2022-10-06T17:33:08.781Z,29.23
2022-10-06T17:35:39.382Z,28.84
2022-10-06T17:38:10.796Z,29.20
2022-10-06T17:40:50.257Z,29.13
2022-10-06T17:43:21.378Z,29.19
2022-10-06T17:45:52.751Z,29.10
2022-10-06T17:48:28.116Z,28.54
2022-10-06T17:51:01.354Z,29.12
2022-10-06T17:53:31.854Z,29.15
2022-10-06T17:56:08.297Z,28.60
2022-10-06T17:58:40.820Z,29.04
2022-10-06T18:01:14.797Z,28.59
2022-10-06T18:03:47.593Z,29.10
2022-10-06T18:06:19.294Z,28.91
2022-10-06T18:08:50.224Z,29.06
2022-10-06T18:11:34.924Z,29.07
2022-10-06T18:14:13.700Z,28.46
2022-10-06T18:16:57.115Z,28.98
2022-10-06T18:19:33.386Z,28.58
2022-10-06T18:22:16.921Z,28.99
2022-10-06T18:24:59.133Z,28.96
2022-10-06T18:27:30.432Z,28.94
2022-10-06T18:30:01.007Z,28.94
2022-10-06T18:38:17.078Z,28.94
2022-10-06T18:41:08.741Z,28.91
2022-10-06T18:43:40.411Z,28.90
2022-10-06T18:46:30.656Z,28.56
2022-10-06T18:49:06.886Z,28.81
2022-10-06T18:51:39.955Z,28.89
2022-10-06T18:54:16.566Z,28.90
2022-10-06T18:56:54.443Z,28.86
2022-10-06T18:59:28.259Z,28.09
2022-10-06T19:02:01.542Z,28.85
2022-10-06T19:04:36.849Z,28.33
2022-10-06T19:07:07.511Z,28.85
2022-10-06T19:09:40.540Z,28.84
2022-10-06T19:12:14.462Z,28.83
2022-10-06T19:14:48.649Z,28.77
2022-10-06T19:17:19.335Z,28.80
2022-10-06T19:19:52.154Z,28.81
2022-10-06T19:22:34.590Z,28.80
2022-10-06T19:25:05.421Z,28.79
2022-10-06T19:27:38.050Z,28.31
2022-10-06T19:30:09.037Z,28.77
2022-10-06T19:32:39.611Z,28.72
2022-10-06T19:35:10.793Z,28.35
2022-10-06T19:37:41.993Z,28.58
2022-10-06T19:40:12.924Z,28.64
2022-10-06T19:42:49.788Z,28.68
2022-10-06T19:45:22.098Z,28.68
2022-10-06T19:47:53.511Z,28.63
2022-10-06T19:50:24.022Z,28.54
2022-10-06T19:52:57.122Z,28.61
2022-10-06T19:55:29.746Z,28.65
2022-10-06T19:58:01.216Z,28.57
2022-10-06T20:00:32.422Z,28.63
2022-10-06T20:03:02.948Z,28.62
2022-10-06T20:05:39.455Z,28.13
2022-10-06T20:08:10.083Z,28.62
2022-10-06T20:10:40.920Z,28.61
2022-10-06T20:13:17.137Z,28.61
2022-10-06T20:15:48.684Z,28.61
2022-10-06T20:18:19.166Z,28.58
2022-10-06T20:20:59.674Z,28.56
2022-10-06T20:23:30.466Z,28.46
2022-10-06T20:26:34.369Z,28.36
2022-10-06T20:29:08.625Z,28.57
2022-10-06T20:32:06.232Z,28.42
2022-10-06T20:34:36.868Z,28.56
2022-10-06T20:37:07.518Z,28.44
2022-10-06T20:39:56.505Z,28.55
2022-10-06T20:42:29.089Z,28.43
2022-10-06T20:44:59.657Z,28.54
2022-10-06T20:47:30.921Z,28.56
2022-10-06T20:50:01.818Z,28.51
2022-10-06T20:52:32.824Z,28.52
2022-10-06T20:55:03.794Z,28.50
2022-10-06T20:57:34.354Z,28.52
2022-10-06T21:00:05.078Z,28.45
2022-10-06T21:02:35.737Z,28.52
2022-10-06T21:05:06.549Z,28.51
2022-10-06T21:07:37.621Z,28.46
2022-10-06T21:10:08.858Z,28.49
2022-10-06T21:12:39.536Z,28.47
2022-10-06T21:15:10.905Z,28.49
2022-10-06T21:17:43.401Z,28.47
2022-10-06T21:20:14.198Z,28.46
2022-10-06T21:22:44.684Z,28.46
2022-10-06T21:25:15.449Z,28.45
2022-10-06T21:27:48.275Z,28.44
2022-10-06T21:30:18.828Z,28.30
2022-10-06T21:32:49.523Z,28.43
2022-10-06T21:35:20.527Z,28.41
2022-10-06T21:37:51.386Z,28.23
2022-10-06T21:40:22.358Z,28.35
2022-10-06T21:42:52.927Z,28.31
2022-10-06T21:45:24.950Z,28.23
2022-10-06T21:50:43.710Z,28.21
2022-10-06T21:53:14.247Z,28.23
2022-10-06T21:55:44.810Z,28.24
2022-10-06T21:58:15.528Z,28.22
2022-10-06T22:00:46.102Z,28.11
2022-10-06T22:03:16.670Z,28.18
2022-10-06T22:05:47.210Z,28.17
2022-10-06T22:08:34.725Z,28.17
2022-10-06T22:11:22.662Z,28.15
2022-10-06T22:13:56.441Z,28.15
2022-10-06T22:16:28.887Z,27.69
2022-10-06T22:19:00.236Z,28.11
2022-10-06T22:21:38.958Z,27.52
2022-10-06T22:24:16.240Z,28.07
2022-10-06T22:26:47.522Z,28.10
2022-10-06T22:29:20.473Z,27.10
2022-10-06T22:31:51.350Z,28.07
2022-10-06T22:34:22.440Z,28.06
2022-10-06T22:36:52.987Z,28.06
2022-10-06T22:39:23.427Z,28.05
2022-10-06T22:42:00.365Z,27.92
2022-10-06T22:44:33.660Z,28.02
2022-10-06T22:52:43.929Z,28.06
2022-10-06T22:55:15.179Z,28.04
2022-10-06T22:57:46.008Z,28.08
2022-10-06T23:00:17.573Z,28.06
2022-10-06T23:02:50.861Z,27.92
2022-10-06T23:05:21.927Z,27.97
2022-10-06T23:07:52.607Z,28.03
2022-10-06T23:10:23.522Z,28.10
2022-10-06T23:12:59.180Z,28.20
2022-10-06T23:15:30.529Z,28.28
2022-10-06T23:18:01.745Z,28.28
2022-10-06T23:20:32.727Z,28.37
2022-10-06T23:23:03.495Z,28.27
2022-10-06T23:25:40.518Z,28.31
2022-10-06T23:28:11.207Z,28.47
2022-10-06T23:30:42.032Z,28.55
2022-10-06T23:33:12.562Z,28.65
2022-10-06T23:35:43.605Z,28.73
2022-10-06T23:38:15.083Z,28.78
2022-10-06T23:40:45.734Z,28.83
2022-10-06T23:43:16.624Z,28.91
2022-10-06T23:45:56.900Z,28.89
2022-10-06T23:48:29.523Z,28.87
2022-10-06T23:51:14.674Z,28.56
2022-10-06T23:53:49.364Z,29.16
2022-10-06T23:56:23.814Z,29.22
2022-10-06T23:58:54.397Z,29.28
